Capt. Elliot Crochet — WDI2218 — position and weather

sailwx.info

Track history (hours):
 
Tides and Currents Weather Stations Pressure Air Temp Water Temp Dewpoint Dewpoint Depression Visibility Wind Speed Wind Dir Waves Ship Positions

Capt. Elliot Crochet

Owner: CLM TOWING, LLC, MAURICEVILLE, TX. More information available from US FCC via Universal Licensing System and Coast Guard Vessel Documentation Center.

Last reported at 2017-Dec-07 21:09 UTC. Time now 2017-Dec-17 17:33 UTC.
Position N 29°34' W 090°30'.
Warning: this ship's position is 9 days out of date.

Length 24 m; draft 2.7 m.

Type: Towing. MMSI: 367675880.

Date/timePositionNaut miles runAvg speedWind from/ knotsBaromVisibWave heightAir tempDewpointWater temp
2017-Dec-07 21:09N 29°34' W 090°30'1 4.3
2017-Dec-07 21:00N 29°34' W 090°31'2 4.4
2017-Dec-07 20:30N 29°34' W 090°33'2 4.0
2017-Dec-07 20:00N 29°35' W 090°35'2 4.0
2017-Dec-07 19:30N 29°35' W 090°38'2 4.2
2017-Dec-07 19:00N 29°36' W 090°40'2 4.0
2017-Dec-07 18:30N 29°37' W 090°42'2 3.1
2017-Dec-07 18:00N 29°35' W 090°43'2 3.4
2017-Dec-07 17:30N 29°34' W 090°44'2 4.1
2017-Dec-07 17:00N 29°33' W 090°45'0 0.5
2017-Dec-07 16:30N 29°32' W 090°46'1 2.7
2017-Dec-07 16:00N 29°34' W 090°45'2 3.3
2017-Dec-07 15:30N 29°34' W 090°43'2 4.1
2017-Dec-07 15:00N 29°36' W 090°43'3 5.4
2017-Dec-07 14:30N 29°36' W 090°39'3 6.5
2017-Dec-07 14:00N 29°35' W 090°36'3 6.4
2017-Dec-07 13:30N 29°34' W 090°32'  
2017-Dec-04 10:21N 29°35' W 090°35'0 1.3
2017-Dec-04 10:00N 29°35' W 090°36'2 4.0
2017-Dec-04 09:30N 29°35' W 090°38'2 4.5
2017-Dec-04 09:00N 29°36' W 090°40'2 4.1
2017-Dec-04 08:30N 29°37' W 090°43'2 4.2
2017-Dec-04 08:00N 29°35' W 090°43'2 3.3
2017-Dec-04 07:30N 29°34' W 090°45'1 2.0
2017-Dec-04 07:00N 29°33' W 090°45'0 0.0
2017-Dec-04 06:30N 29°33' W 090°45'0 0.0
2017-Dec-04 06:00N 29°33' W 090°45'0 0.0
2017-Dec-04 05:30N 29°33' W 090°45'0 0.0
2017-Dec-04 05:00N 29°33' W 090°45'0 0.0
2017-Dec-04 04:30N 29°33' W 090°45'0 0.0
2017-Dec-04 04:00N 29°33' W 090°45'0 0.1
2017-Dec-04 03:30N 29°33' W 090°45'1 2.3
2017-Dec-04 03:00N 29°32' W 090°46'1 2.0
2017-Dec-04 02:30N 29°32' W 090°48'2 3.2
2017-Dec-04 02:01N 29°32' W 090°49'2 3.6
2017-Dec-04 01:24N 29°32' W 090°52'2 5.4
2017-Dec-04 01:00N 29°33' W 090°54'2 4.9
2017-Dec-04 00:30N 29°34' W 090°57'55 2.2
2017-Dec-02 23:47N 29°50' W 091°58'1 5.1
2017-Dec-02 23:30N 29°50' W 091°59'2 4.4
2017-Dec-02 23:00N 29°49' W 092°02'2 3.9
2017-Dec-02 22:31N 29°49' W 092°04'2 4.3
2017-Dec-02 22:00N 29°48' W 092°06'2 4.7
2017-Dec-02 21:31N 29°47' W 092°09'2 4.3
2017-Dec-02 21:00N 29°47' W 092°11'2 4.2
2017-Dec-02 20:31N 29°48' W 092°13'2 3.2
2017-Dec-02 20:00N 29°48' W 092°15'2 4.4
2017-Dec-02 19:30N 29°49' W 092°17'2 4.3
2017-Dec-02 19:00N 29°50' W 092°19'2 4.3
2017-Dec-02 18:30N 29°51' W 092°22'37 4.0
2017-Dec-02 09:16N 29°56' W 093°03'1 4.5
2017-Dec-02 09:00N 29°56' W 093°05'2 4.4
2017-Dec-02 08:30N 29°56' W 093°07'2 3.5
2017-Dec-02 08:00N 29°56' W 093°09'2 3.6
2017-Dec-02 07:31N 29°57' W 093°11'2 4.5
2017-Dec-02 07:00N 29°59' W 093°12'2 3.5
2017-Dec-02 06:30N 30°00' W 093°14'2 3.4
2017-Dec-02 06:00N 30°02' W 093°15'1 2.7
2017-Dec-02 05:30N 30°03' W 093°16'2 4.2
2017-Dec-02 05:00N 30°05' W 093°17'1 2.0
2017-Dec-02 04:30N 30°05' W 093°18'1 1.3
2017-Dec-02 04:00N 30°06' W 093°18'0 0.1
2017-Dec-02 03:30N 30°06' W 093°18'0 0.0
2017-Dec-02 03:00N 30°06' W 093°18'1 1.2
2017-Dec-02 02:30N 30°06' W 093°19'2 4.5
2017-Dec-02 02:01N 30°04' W 093°20'2 3.5
2017-Dec-02 01:30N 30°04' W 093°22'2 4.1
2017-Dec-02 01:00N 30°04' W 093°25'2 4.4
2017-Dec-02 00:30N 30°04' W 093°27'2 4.4
2017-Dec-02 00:00N 30°04' W 093°30'2 4.5
2017-Dec-01 23:30N 30°04' W 093°32'77 4.5
2017-Dec-01 06:16N 29°30' W 094°52'2 7.4
2017-Dec-01 05:58N 29°31' W 094°53'3 7.1
2017-Dec-01 05:30N 29°34' W 094°55'3 6.9
2017-Dec-01 05:00N 29°37' W 094°57'4 7.9
2017-Dec-01 04:30N 29°41' W 094°59'3 5.7
2017-Dec-01 04:00N 29°43' W 095°01'2 3.9
2017-Dec-01 03:30N 29°44' W 095°03'3 5.6
2017-Dec-01 03:00N 29°46' W 095°05'1 2.8
2017-Dec-01 02:30N 29°47' W 095°04'0 0.1
2017-Dec-01 01:11N 29°47' W 095°04'1 0.1
2017-Nov-30 12:47N 29°47' W 095°05'0 0.0
2017-Nov-30 12:26N 29°47' W 095°05'0 0.0
2017-Nov-30 12:00N 29°47' W 095°05'0 0.0
2017-Nov-30 11:29N 29°47' W 095°05'0 0.0
2017-Nov-30 11:00N 29°47' W 095°05'0 0.0
2017-Nov-30 10:30N 29°47' W 095°05'0 0.0
2017-Nov-30 10:00N 29°47' W 095°05'0 0.0
2017-Nov-30 09:30N 29°47' W 095°05'0 0.0
2017-Nov-30 08:59N 29°47' W 095°05'0 0.0
2017-Nov-30 08:30N 29°47' W 095°05'0 0.0
2017-Nov-30 08:00N 29°47' W 095°05'0 0.0
2017-Nov-30 07:30N 29°47' W 095°05'0 0.0
2017-Nov-30 06:58N 29°47' W 095°05'0 0.0
2017-Nov-30 06:30N 29°47' W 095°05'0 0.0
2017-Nov-30 06:00N 29°47' W 095°05'0 0.0
2017-Nov-30 05:01N 29°47' W 095°05'0 0.0
2017-Nov-30 04:39N 29°47' W 095°05'0 0.0
2017-Nov-30 04:18N 29°47' W 095°05'0 0.0
2017-Nov-30 03:36N 29°47' W 095°05'0 0.0
2017-Nov-30 03:12N 29°47' W 095°05'1 3.7
2017-Nov-30 03:00N 29°47' W 095°04'1 0.7
2017-Nov-30 02:17N 29°47' W 095°04'1 3.8
2017-Nov-30 01:57N 29°46' W 095°04'3 6.6
2017-Nov-30 01:29N 29°44' W 095°02'3 6.6
2017-Nov-30 01:01N 29°41' W 094°59'4 7.6
2017-Nov-30 00:30N 29°38' W 094°58'4 7.7
2017-Nov-30 00:01N 29°34' W 094°55'4 7.9
2017-Nov-29 23:30N 29°31' W 094°53'55 1.7
2017-Nov-28 14:34N 30°01' W 093°59'0 0.0
2017-Nov-28 14:30N 30°01' W 093°59'0 0.0
2017-Nov-28 13:57N 30°01' W 093°59'0 0.0
2017-Nov-28 12:11N 30°01' W 093°59'0 0.0
2017-Nov-28 12:00N 30°01' W 093°59'0 0.0
2017-Nov-28 11:30N 30°01' W 093°59'0 0.0
2017-Nov-28 11:00N 30°01' W 093°59'0 0.0
2017-Nov-28 10:30N 30°01' W 093°59'0 0.0
2017-Nov-28 10:00N 30°01' W 093°59'0 0.0
2017-Nov-28 09:29N 30°01' W 093°59'  
Track history (hours):
 
Tides and Currents Weather Stations Pressure Air Temp Water Temp Dewpoint Dewpoint Depression Visibility Wind Speed Wind Dir Waves Ship Positions

Capt. Elliot Crochet

Owner: CLM TOWING, LLC, MAURICEVILLE, TX. More information available from US FCC via Universal Licensing System and Coast Guard Vessel Documentation Center.

Last reported at 2017-Dec-07 21:09 UTC. Time now 2017-Dec-17 17:33 UTC.
Position N 29°34' W 090°30'.
Warning: this ship's position is 9 days out of date.

Length 24 m; draft 2.7 m.

Type: Towing. MMSI: 367675880.

Date/timePositionNaut miles runAvg speedWind from/ knotsBaromVisibWave heightAir tempDewpointWater temp
2017-Dec-07 21:09N 29°34' W 090°30'1 4.3
2017-Dec-07 21:00N 29°34' W 090°31'2 4.4
2017-Dec-07 20:30N 29°34' W 090°33'2 4.0
2017-Dec-07 20:00N 29°35' W 090°35'2 4.0
2017-Dec-07 19:30N 29°35' W 090°38'2 4.2
2017-Dec-07 19:00N 29°36' W 090°40'2 4.0
2017-Dec-07 18:30N 29°37' W 090°42'2 3.1
2017-Dec-07 18:00N 29°35' W 090°43'2 3.4
2017-Dec-07 17:30N 29°34' W 090°44'2 4.1
2017-Dec-07 17:00N 29°33' W 090°45'0 0.5
2017-Dec-07 16:30N 29°32' W 090°46'1 2.7
2017-Dec-07 16:00N 29°34' W 090°45'2 3.3
2017-Dec-07 15:30N 29°34' W 090°43'2 4.1
2017-Dec-07 15:00N 29°36' W 090°43'3 5.4
2017-Dec-07 14:30N 29°36' W 090°39'3 6.5
2017-Dec-07 14:00N 29°35' W 090°36'3 6.4
2017-Dec-07 13:30N 29°34' W 090°32'  
2017-Dec-04 10:21N 29°35' W 090°35'0 1.3
2017-Dec-04 10:00N 29°35' W 090°36'2 4.0
2017-Dec-04 09:30N 29°35' W 090°38'2 4.5
2017-Dec-04 09:00N 29°36' W 090°40'2 4.1
2017-Dec-04 08:30N 29°37' W 090°43'2 4.2
2017-Dec-04 08:00N 29°35' W 090°43'2 3.3
2017-Dec-04 07:30N 29°34' W 090°45'1 2.0
2017-Dec-04 07:00N 29°33' W 090°45'0 0.0
2017-Dec-04 06:30N 29°33' W 090°45'0 0.0
2017-Dec-04 06:00N 29°33' W 090°45'0 0.0
2017-Dec-04 05:30N 29°33' W 090°45'0 0.0
2017-Dec-04 05:00N 29°33' W 090°45'0 0.0
2017-Dec-04 04:30N 29°33' W 090°45'0 0.0
2017-Dec-04 04:00N 29°33' W 090°45'0 0.1
2017-Dec-04 03:30N 29°33' W 090°45'1 2.3
2017-Dec-04 03:00N 29°32' W 090°46'1 2.0
2017-Dec-04 02:30N 29°32' W 090°48'2 3.2
2017-Dec-04 02:01N 29°32' W 090°49'2 3.6
2017-Dec-04 01:24N 29°32' W 090°52'2 5.4
2017-Dec-04 01:00N 29°33' W 090°54'2 4.9
2017-Dec-04 00:30N 29°34' W 090°57'55 2.2
2017-Dec-02 23:47N 29°50' W 091°58'1 5.1
2017-Dec-02 23:30N 29°50' W 091°59'2 4.4
2017-Dec-02 23:00N 29°49' W 092°02'2 3.9
2017-Dec-02 22:31N 29°49' W 092°04'2 4.3
2017-Dec-02 22:00N 29°48' W 092°06'2 4.7
2017-Dec-02 21:31N 29°47' W 092°09'2 4.3
2017-Dec-02 21:00N 29°47' W 092°11'2 4.2
2017-Dec-02 20:31N 29°48' W 092°13'2 3.2
2017-Dec-02 20:00N 29°48' W 092°15'2 4.4
2017-Dec-02 19:30N 29°49' W 092°17'2 4.3
2017-Dec-02 19:00N 29°50' W 092°19'2 4.3
2017-Dec-02 18:30N 29°51' W 092°22'37 4.0
2017-Dec-02 09:16N 29°56' W 093°03'1 4.5
2017-Dec-02 09:00N 29°56' W 093°05'2 4.4
2017-Dec-02 08:30N 29°56' W 093°07'2 3.5
2017-Dec-02 08:00N 29°56' W 093°09'2 3.6
2017-Dec-02 07:31N 29°57' W 093°11'2 4.5
2017-Dec-02 07:00N 29°59' W 093°12'2 3.5
2017-Dec-02 06:30N 30°00' W 093°14'2 3.4
2017-Dec-02 06:00N 30°02' W 093°15'1 2.7
2017-Dec-02 05:30N 30°03' W 093°16'2 4.2
2017-Dec-02 05:00N 30°05' W 093°17'1 2.0
2017-Dec-02 04:30N 30°05' W 093°18'1 1.3
2017-Dec-02 04:00N 30°06' W 093°18'0 0.1
2017-Dec-02 03:30N 30°06' W 093°18'0 0.0
2017-Dec-02 03:00N 30°06' W 093°18'1 1.2
2017-Dec-02 02:30N 30°06' W 093°19'2 4.5
2017-Dec-02 02:01N 30°04' W 093°20'2 3.5
2017-Dec-02 01:30N 30°04' W 093°22'2 4.1
2017-Dec-02 01:00N 30°04' W 093°25'2 4.4
2017-Dec-02 00:30N 30°04' W 093°27'2 4.4
2017-Dec-02 00:00N 30°04' W 093°30'2 4.5
2017-Dec-01 23:30N 30°04' W 093°32'77 4.5
2017-Dec-01 06:16N 29°30' W 094°52'2 7.4
2017-Dec-01 05:58N 29°31' W 094°53'3 7.1
2017-Dec-01 05:30N 29°34' W 094°55'3 6.9
2017-Dec-01 05:00N 29°37' W 094°57'4 7.9
2017-Dec-01 04:30N 29°41' W 094°59'3 5.7
2017-Dec-01 04:00N 29°43' W 095°01'2 3.9
2017-Dec-01 03:30N 29°44' W 095°03'3 5.6
2017-Dec-01 03:00N 29°46' W 095°05'1 2.8
2017-Dec-01 02:30N 29°47' W 095°04'0 0.1
2017-Dec-01 01:11N 29°47' W 095°04'1 0.1
2017-Nov-30 12:47N 29°47' W 095°05'0 0.0
2017-Nov-30 12:26N 29°47' W 095°05'0 0.0
2017-Nov-30 12:00N 29°47' W 095°05'0 0.0
2017-Nov-30 11:29N 29°47' W 095°05'0 0.0
2017-Nov-30 11:00N 29°47' W 095°05'0 0.0
2017-Nov-30 10:30N 29°47' W 095°05'0 0.0
2017-Nov-30 10:00N 29°47' W 095°05'0 0.0
2017-Nov-30 09:30N 29°47' W 095°05'0 0.0
2017-Nov-30 08:59N 29°47' W 095°05'0 0.0
2017-Nov-30 08:30N 29°47' W 095°05'0 0.0
2017-Nov-30 08:00N 29°47' W 095°05'0 0.0
2017-Nov-30 07:30N 29°47' W 095°05'0 0.0
2017-Nov-30 06:58N 29°47' W 095°05'0 0.0
2017-Nov-30 06:30N 29°47' W 095°05'0 0.0
2017-Nov-30 06:00N 29°47' W 095°05'0 0.0
2017-Nov-30 05:01N 29°47' W 095°05'0 0.0
2017-Nov-30 04:39N 29°47' W 095°05'0 0.0
2017-Nov-30 04:18N 29°47' W 095°05'0 0.0
2017-Nov-30 03:36N 29°47' W 095°05'0 0.0
2017-Nov-30 03:12N 29°47' W 095°05'1 3.7
2017-Nov-30 03:00N 29°47' W 095°04'1 0.7
2017-Nov-30 02:17N 29°47' W 095°04'1 3.8
2017-Nov-30 01:57N 29°46' W 095°04'3 6.6
2017-Nov-30 01:29N 29°44' W 095°02'3 6.6
2017-Nov-30 01:01N 29°41' W 094°59'4 7.6
2017-Nov-30 00:30N 29°38' W 094°58'4 7.7
2017-Nov-30 00:01N 29°34' W 094°55'4 7.9
2017-Nov-29 23:30N 29°31' W 094°53'55 1.7
2017-Nov-28 14:34N 30°01' W 093°59'0 0.0
2017-Nov-28 14:30N 30°01' W 093°59'0 0.0
2017-Nov-28 13:57N 30°01' W 093°59'0 0.0
2017-Nov-28 12:11N 30°01' W 093°59'0 0.0
2017-Nov-28 12:00N 30°01' W 093°59'0 0.0
2017-Nov-28 11:30N 30°01' W 093°59'0 0.0
2017-Nov-28 11:00N 30°01' W 093°59'0 0.0
2017-Nov-28 10:30N 30°01' W 093°59'0 0.0
2017-Nov-28 10:00N 30°01' W 093°59'0 0.0
2017-Nov-28 09:29N 30°01' W 093°59'  

Dump ship's entire track history